createdAt,value
2017-07-08T00:00:17.133Z,20.80
2017-07-08T00:02:43.636Z,20.80
2017-07-08T00:05:10.102Z,20.80
2017-07-08T00:07:36.536Z,20.80
2017-07-08T00:10:05.044Z,20.70
2017-07-08T00:12:31.509Z,20.70
2017-07-08T00:14:58.034Z,20.60
2017-07-08T00:17:24.597Z,20.70
2017-07-08T00:19:51.038Z,20.60
2017-07-08T00:22:17.519Z,20.50
2017-07-08T00:24:43.964Z,20.50
2017-07-08T00:27:10.472Z,20.50
2017-07-08T00:29:36.953Z,20.40
2017-07-08T00:32:04.537Z,20.40
2017-07-08T00:34:31.034Z,20.40
2017-07-08T00:36:57.462Z,20.30
2017-07-08T00:39:23.963Z,20.30
2017-07-08T00:41:50.416Z,20.20
2017-07-08T00:44:16.886Z,20.10
2017-07-08T00:46:43.374Z,20.00
2017-07-08T00:49:09.790Z,20.00
2017-07-08T00:51:36.247Z,19.90
2017-07-08T00:54:02.730Z,19.90
2017-07-08T00:56:29.234Z,19.90
2017-07-08T00:58:55.760Z,19.80
2017-07-08T01:01:23.257Z,19.70
2017-07-08T01:03:49.749Z,19.70
2017-07-08T01:06:16.209Z,19.60
2017-07-08T01:08:42.765Z,19.60
2017-07-08T01:11:09.218Z,19.50
2017-07-08T01:13:35.731Z,19.50
2017-07-08T01:16:02.266Z,19.40
2017-07-08T01:18:29.822Z,19.40
2017-07-08T01:20:56.293Z,19.30
2017-07-08T01:23:23.506Z,19.30
2017-07-08T01:25:49.954Z,19.30
2017-07-08T01:28:16.430Z,19.30
2017-07-08T01:30:42.890Z,19.30
2017-07-08T01:33:09.386Z,19.20
2017-07-08T01:35:35.857Z,19.20
2017-07-08T01:38:02.420Z,19.20
2017-07-08T01:40:28.866Z,19.10
2017-07-08T01:42:55.326Z,19.00
2017-07-08T01:45:21.848Z,19.00
2017-07-08T01:47:48.310Z,18.90
2017-07-08T01:50:15.558Z,18.70
2017-07-08T01:52:42.788Z,18.70
2017-07-08T01:55:09.266Z,18.60
2017-07-08T01:57:35.802Z,18.60
2017-07-08T02:00:02.318Z,18.60
2017-07-08T02:02:28.800Z,18.60
2017-07-08T02:04:55.312Z,18.60
2017-07-08T02:07:21.797Z,18.50
2017-07-08T02:09:48.291Z,18.50
2017-07-08T02:12:14.730Z,18.40
2017-07-08T02:14:41.231Z,18.40
2017-07-08T02:17:07.757Z,18.40
2017-07-08T02:19:34.200Z,18.30
2017-07-08T02:22:00.692Z,18.20
2017-07-08T02:24:27.156Z,18.20
2017-07-08T02:26:53.610Z,18.20
2017-07-08T02:29:21.119Z,18.20
2017-07-08T02:31:47.700Z,18.20
2017-07-08T02:34:14.283Z,18.20
2017-07-08T02:36:40.789Z,18.10
2017-07-08T02:39:07.320Z,18.10
2017-07-08T02:41:33.772Z,18.10
2017-07-08T02:44:00.265Z,18.10
2017-07-08T02:46:26.760Z,18.00
2017-07-08T02:48:53.262Z,18.00
2017-07-08T02:51:20.471Z,18.00
2017-07-08T02:53:46.912Z,17.90
2017-07-08T02:56:13.401Z,18.00
2017-07-08T02:58:40.668Z,17.90
2017-07-08T03:01:07.858Z,17.80
2017-07-08T03:03:34.388Z,17.80
2017-07-08T03:06:00.917Z,17.80
2017-07-08T03:08:27.416Z,17.80
2017-07-08T03:10:54.096Z,17.80
2017-07-08T03:13:20.583Z,17.80
2017-07-08T03:15:47.050Z,17.80
2017-07-08T03:18:13.549Z,17.80
2017-07-08T03:20:40.056Z,17.80
2017-07-08T03:23:07.242Z,17.90
2017-07-08T03:25:33.679Z,17.90
2017-07-08T03:28:00.174Z,17.90
2017-07-08T03:30:26.643Z,17.80
2017-07-08T03:32:53.821Z,17.80
2017-07-08T03:35:20.318Z,17.80
2017-07-08T03:37:46.778Z,17.80
2017-07-08T03:40:13.273Z,17.70
2017-07-08T03:42:39.755Z,17.70
2017-07-08T03:45:06.242Z,17.70
2017-07-08T03:47:32.701Z,17.70
2017-07-08T03:49:59.175Z,17.70
2017-07-08T03:52:27.285Z,17.70
2017-07-08T03:54:53.771Z,17.70
2017-07-08T03:57:20.270Z,17.70
2017-07-08T03:59:46.795Z,17.70
2017-07-08T04:02:13.290Z,17.70
2017-07-08T04:04:39.842Z,17.70
2017-07-08T04:07:06.321Z,17.70
2017-07-08T04:09:32.827Z,17.70
2017-07-08T04:11:59.360Z,17.70
2017-07-08T04:14:25.831Z,17.80
2017-07-08T04:16:53.046Z,17.80
2017-07-08T04:19:20.263Z,17.90
2017-07-08T04:21:46.686Z,17.80
2017-07-08T04:24:13.178Z,17.90
2017-07-08T04:26:39.658Z,18.00
2017-07-08T04:29:06.901Z,18.10
2017-07-08T04:31:33.361Z,18.10
2017-07-08T04:33:59.836Z,18.20
2017-07-08T04:36:27.092Z,18.30
2017-07-08T04:38:53.580Z,18.20
2017-07-08T04:41:20.116Z,18.30
2017-07-08T04:43:46.565Z,18.30
2017-07-08T04:46:12.961Z,18.40
2017-07-08T04:48:39.445Z,18.40
2017-07-08T04:51:05.886Z,18.50
2017-07-08T04:53:32.384Z,18.50
2017-07-08T04:55:59.577Z,18.50
2017-07-08T04:58:26.026Z,18.50
2017-07-08T05:00:52.537Z,18.60
2017-07-08T05:03:19.015Z,18.60
2017-07-08T05:05:45.484Z,18.60
2017-07-08T05:08:11.943Z,18.60
2017-07-08T05:10:38.403Z,18.70
2017-07-08T05:13:04.867Z,18.70
2017-07-08T05:15:31.351Z,18.70
2017-07-08T05:17:57.837Z,18.70
2017-07-08T05:20:24.304Z,18.80
2017-07-08T05:22:50.767Z,18.80
2017-07-08T05:25:17.286Z,18.90
2017-07-08T05:27:43.769Z,18.90
2017-07-08T05:30:11.240Z,19.00
2017-07-08T05:32:37.722Z,19.10
2017-07-08T05:35:04.142Z,19.00
2017-07-08T05:37:30.598Z,19.20
2017-07-08T05:39:57.082Z,19.20
2017-07-08T05:42:24.319Z,19.40
2017-07-08T05:44:51.500Z,19.50
2017-07-08T05:47:18.013Z,19.50
2017-07-08T05:49:44.468Z,19.60
2017-07-08T05:52:10.973Z,19.70
2017-07-08T05:54:37.414Z,19.80
2017-07-08T05:57:03.852Z,19.80
2017-07-08T05:59:30.284Z,19.90
2017-07-08T06:01:56.758Z,20.00
2017-07-08T06:04:23.965Z,20.10
2017-07-08T06:06:50.436Z,20.10
2017-07-08T06:09:16.939Z,20.20
2017-07-08T06:11:43.486Z,20.20
2017-07-08T06:14:10.071Z,20.30
2017-07-08T06:16:36.658Z,20.40
2017-07-08T06:19:03.109Z,20.40
2017-07-08T06:21:29.568Z,20.50
2017-07-08T06:23:56.041Z,20.60
2017-07-08T06:26:22.490Z,20.80
2017-07-08T06:28:49.019Z,20.90
2017-07-08T06:31:15.502Z,21.10
2017-07-08T06:33:41.944Z,21.20
2017-07-08T06:36:09.186Z,21.50
2017-07-08T06:38:35.675Z,21.40
2017-07-08T06:41:02.153Z,21.60
2017-07-08T06:43:28.633Z,21.70
2017-07-08T06:45:55.083Z,21.80
2017-07-08T06:48:21.559Z,22.00
2017-07-08T06:50:48.742Z,22.20
2017-07-08T06:53:15.229Z,22.20
2017-07-08T06:55:41.703Z,22.30
2017-07-08T06:58:08.173Z,22.50
2017-07-08T07:00:34.662Z,22.60
2017-07-08T07:03:01.091Z,22.70
2017-07-08T07:05:28.330Z,23.00
2017-07-08T07:07:54.844Z,22.90
2017-07-08T07:10:21.292Z,23.10
2017-07-08T07:12:47.760Z,23.30
2017-07-08T07:15:14.241Z,23.50
2017-07-08T07:17:40.724Z,23.70
2017-07-08T07:20:07.279Z,23.80
2017-07-08T07:22:33.781Z,24.10
2017-07-08T07:25:00.330Z,24.20
2017-07-08T07:27:26.727Z,24.40
2017-07-08T07:29:53.200Z,24.50
2017-07-08T07:32:19.676Z,24.70
2017-07-08T07:34:46.265Z,24.90
2017-07-08T07:37:12.795Z,25.00
2017-07-08T07:39:39.226Z,25.00
2017-07-08T07:42:05.685Z,25.10
2017-07-08T07:44:32.145Z,25.20
2017-07-08T07:46:58.580Z,25.30
2017-07-08T07:49:25.118Z,25.30
2017-07-08T07:51:51.730Z,25.40
2017-07-08T07:54:19.213Z,25.50
2017-07-08T07:56:46.882Z,25.60
2017-07-08T07:59:13.425Z,25.60
2017-07-08T08:01:39.894Z,25.80
2017-07-08T08:04:06.314Z,25.90
2017-07-08T08:06:33.570Z,26.10
2017-07-08T08:09:15.027Z,26.10
2017-07-08T08:11:41.543Z,26.40
2017-07-08T08:14:08.027Z,26.60
2017-07-08T08:16:34.506Z,26.80
2017-07-08T08:19:01.031Z,27.00
2017-07-08T08:21:27.565Z,27.10
2017-07-08T08:23:53.987Z,27.20
2017-07-08T08:26:20.478Z,27.30
2017-07-08T08:28:46.937Z,27.40
2017-07-08T08:31:13.429Z,27.30
2017-07-08T08:33:39.897Z,27.20
2017-07-08T08:36:06.403Z,27.10
2017-07-08T08:38:32.890Z,27.10
2017-07-08T08:40:59.460Z,27.00
2017-07-08T08:43:25.948Z,26.90
2017-07-08T08:45:52.388Z,26.90
2017-07-08T08:48:18.922Z,26.90
2017-07-08T08:50:45.444Z,27.10
2017-07-08T08:53:12.648Z,27.10
2017-07-08T08:55:39.131Z,27.10
2017-07-08T08:58:05.644Z,27.20
2017-07-08T09:00:32.160Z,27.40
2017-07-08T09:02:58.632Z,27.50
2017-07-08T09:05:25.058Z,27.50
2017-07-08T09:07:51.516Z,27.50
2017-07-08T09:10:18.038Z,27.70
2017-07-08T09:12:44.466Z,27.80
2017-07-08T09:15:10.939Z,28.00
2017-07-08T09:17:37.463Z,28.30
2017-07-08T09:20:04.648Z,29.90
2017-07-08T09:22:31.127Z,29.90
2017-07-08T09:24:57.623Z,31.50
2017-07-08T09:27:24.101Z,33.30
2017-07-08T09:29:51.561Z,35.10
2017-07-08T09:32:18.032Z,36.90
2017-07-08T09:34:44.489Z,37.90
2017-07-08T09:37:11.219Z,38.00
2017-07-08T09:39:38.435Z,39.00
2017-07-08T09:42:04.916Z,38.90
2017-07-08T09:44:33.465Z,39.40
2017-07-08T09:46:59.937Z,40.10
2017-07-08T09:49:26.408Z,41.00
2017-07-08T09:51:52.928Z,42.00
2017-07-08T09:54:19.392Z,43.10
2017-07-08T09:56:45.868Z,42.90
2017-07-08T09:59:12.329Z,42.70
2017-07-08T10:01:38.792Z,42.30
2017-07-08T10:04:05.221Z,42.20
2017-07-08T10:06:31.762Z,42.30
2017-07-08T10:08:58.190Z,42.00
2017-07-08T10:11:24.665Z,41.30
2017-07-08T10:13:51.093Z,40.80
2017-07-08T10:16:17.622Z,40.40
2017-07-08T10:18:44.180Z,39.60
2017-07-08T10:21:10.736Z,38.90
2017-07-08T10:23:37.932Z,36.80
2017-07-08T10:26:04.415Z,36.70
2017-07-08T10:28:31.616Z,34.90
2017-07-08T10:30:58.100Z,34.80
2017-07-08T10:33:24.654Z,34.00
2017-07-08T10:35:51.176Z,33.40
2017-07-08T10:38:17.640Z,32.90
2017-07-08T10:40:44.299Z,32.60
2017-07-08T10:43:10.802Z,32.20
2017-07-08T10:45:37.299Z,31.90
2017-07-08T10:48:03.739Z,31.70
2017-07-08T10:50:30.279Z,31.40
2017-07-08T10:52:56.752Z,31.10
2017-07-08T10:55:23.229Z,30.90
2017-07-08T10:57:49.707Z,30.70
2017-07-08T11:00:16.204Z,30.60
2017-07-08T11:02:43.634Z,30.60
2017-07-08T11:05:10.107Z,30.50
2017-07-08T11:07:36.737Z,30.40
2017-07-08T11:10:03.217Z,30.30
2017-07-08T11:12:29.667Z,30.20
2017-07-08T11:14:56.124Z,30.10
2017-07-08T11:17:23.322Z,29.70
2017-07-08T11:19:49.790Z,29.70
2017-07-08T11:22:16.301Z,29.70
2017-07-08T11:24:42.795Z,29.70
2017-07-08T11:27:09.248Z,29.70
2017-07-08T11:29:35.753Z,29.90
2017-07-08T11:32:02.211Z,30.10
2017-07-08T11:34:28.683Z,30.30
2017-07-08T11:36:55.162Z,30.40
2017-07-08T11:39:21.578Z,30.50
2017-07-08T11:41:48.015Z,30.70
2017-07-08T11:44:14.490Z,30.80
2017-07-08T11:46:40.916Z,30.80
2017-07-08T11:49:07.372Z,30.90
2017-07-08T11:51:33.873Z,31.00
2017-07-08T11:54:00.289Z,31.10
2017-07-08T11:56:26.748Z,31.20
2017-07-08T11:58:53.196Z,31.50
